Time;durP1;ratioP1;P1;durP2;ratioP2;P2;SDS_P1;SDS_P2;PMS_P1;PMS_P2;Temp;Humidity;BMP_temperature;BMP_pressure;BME280_temperature;BME280_humidity;BME280_pressure;Samples;Min_cycle;Max_cycle;Signal;HPM_P1;HPM_P2
2022/02/18 00:00:18;;;;;;;;;6.50;4.75;;;;;14.36;91.46;101041.34;4994949;28;45592;-83
2022/02/18 00:02:44;;;;;;;;;8.75;6.25;;;;;14.36;91.94;101032.66;4994453;28;45883;-83
2022/02/18 00:05:10;;;;;;;;;7.25;5.50;;;;;14.36;93.77;101024.84;4992633;28;45456;-82
2022/02/18 00:07:36;;;;;;;;;12.00;7.00;;;;;14.33;93.87;101023.03;4978026;28;45464;-82
2022/02/18 00:10:03;;;;;;;;;9.00;6.25;;;;;14.23;93.41;101015.75;4976851;28;47801;-82
2022/02/18 00:12:29;;;;;;;;;8.25;6.50;;;;;14.22;94.06;101008.75;4995164;27;45312;-82
2022/02/18 00:14:55;;;;;;;;;4.50;4.50;;;;;14.23;94.68;101019.22;4995468;28;45342;-84
2022/02/18 00:17:20;;;;;;;;;7.25;5.00;;;;;14.23;95.24;101014.00;4976709;28;45561;-82
2022/02/18 00:19:46;;;;;;;;;8.00;5.00;;;;;14.22;94.49;101013.97;5039578;27;45475;-83
2022/02/18 00:22:12;;;;;;;;;7.00;6.00;;;;;14.13;95.05;100996.31;5079253;27;45652;-82
2022/02/18 00:24:37;;;;;;;;;6.75;5.00;;;;;14.17;95.67;101011.22;5097951;27;45492;-83
2022/02/18 00:27:03;;;;;;;;;6.50;5.50;;;;;14.12;95.83;101002.34;5097810;27;45309;-84
2022/02/18 00:29:29;;;;;;;;;10.00;7.50;;;;;14.05;96.17;101001.25;5097449;27;45966;-82
2022/02/18 00:31:55;;;;;;;;;11.50;6.50;;;;;14.01;96.91;100998.50;5097845;27;45453;-83
2022/02/18 00:34:21;;;;;;;;;6.75;4.75;;;;;14.04;98.14;101009.03;5073396;27;45368;-83
2022/02/18 00:36:47;;;;;;;;;8.25;5.75;;;;;14.04;99.85;100998.63;4994693;28;45554;-83
2022/02/18 00:39:13;;;;;;;;;5.25;4.75;;;;;14.07;99.26;100998.72;4976111;28;46205;-83
2022/02/18 00:41:38;;;;;;;;;8.25;5.00;;;;;14.07;99.65;100983.97;4994023;28;45441;-84
2022/02/18 00:44:04;;;;;;;;;8.00;6.25;;;;;14.07;97.79;100983.09;4993956;28;45358;-82
2022/02/18 00:46:30;;;;;;;;;5.75;5.50;;;;;14.02;95.57;100972.53;4994616;28;45497;-83
2022/02/18 00:48:56;;;;;;;;;3.75;2.25;;;;;14.03;95.26;100965.59;5000065;27;45926;-83
2022/02/18 00:51:22;;;;;;;;;7.75;4.00;;;;;13.99;96.29;100948.09;5078726;27;45585;-83
2022/02/18 00:53:48;;;;;;;;;6.00;4.00;;;;;14.01;97.69;100951.66;5097327;27;45449;-84
2022/02/18 00:56:14;;;;;;;;;5.25;4.50;;;;;14.01;100.00;100947.34;5078911;27;45444;-82
2022/02/18 00:58:40;;;;;;;;;5.00;4.00;;;;;14.01;100.00;100941.22;5097106;27;45410;-83
2022/02/18 01:01:08;;;;;;;;;5.50;5.00;;;;;14.02;100.00;100941.31;5028266;28;45502;-81
2022/02/18 01:03:35;;;;;;;;;4.75;3.00;;;;;14.03;100.00;100929.16;4993316;28;45457;-84
2022/02/18 01:06:01;;;;;;;;;5.75;4.75;;;;;14.08;100.00;100940.63;4992963;27;45339;-83
2022/02/18 01:08:27;;;;;;;;;7.00;6.50;;;;;14.07;100.00;100923.22;4976162;28;46868;-83
2022/02/18 01:10:53;;;;;;;;;9.50;5.75;;;;;14.08;100.00;100923.25;4993366;28;45486;-84
2022/02/18 01:13:18;;;;;;;;;12.00;7.00;;;;;14.09;100.00;100913.75;4993412;28;45422;-83
2022/02/18 01:15:44;;;;;;;;;9.25;4.75;;;;;14.08;100.00;100891.16;4993775;28;45587;-83
2022/02/18 01:18:10;;;;;;;;;8.75;5.50;;;;;14.13;100.00;100888.69;4976970;28;47828;-83
2022/02/18 01:20:36;;;;;;;;;9.00;4.75;;;;;14.13;100.00;100879.16;4993498;28;45743;-83
2022/02/18 01:23:01;;;;;;;;;7.00;4.75;;;;;14.08;100.00;100866.00;4993481;28;45474;-84
2022/02/18 01:25:27;;;;;;;;;8.75;5.25;;;;;14.10;100.00;100866.03;4976908;28;45586;-83
2022/02/18 01:27:56;;;;;;;;;9.00;4.75;;;;;14.07;100.00;100864.22;4993475;28;45358;-81
2022/02/18 01:30:24;;;;;;;;;4.00;3.50;;;;;14.02;100.00;100858.00;4993185;27;45703;-83
2022/02/18 01:32:51;;;;;;;;;6.50;4.50;;;;;14.07;100.00;100852.94;4974681;28;45537;-85
2022/02/18 01:35:17;;;;;;;;;6.25;5.00;;;;;14.04;100.00;100842.41;4975457;28;45561;-82
2022/02/18 01:37:44;;;;;;;;;6.25;3.75;;;;;14.08;100.00;100852.09;4993061;28;46232;-83
2022/02/18 01:40:11;;;;;;;;;8.00;5.00;;;;;14.06;100.00;100828.59;5025725;27;45797;-83
2022/02/18 01:42:37;;;;;;;;;6.00;5.00;;;;;14.11;100.00;100838.28;4993459;28;45407;-84
2022/02/18 01:45:03;;;;;;;;;8.50;5.00;;;;;14.11;100.00;100822.66;4975880;28;45472;-83
2022/02/18 01:47:29;;;;;;;;;5.00;2.50;;;;;14.10;100.00;100811.34;4992334;28;45974;-82
2022/02/18 01:49:58;;;;;;;;;6.00;2.25;;;;;14.04;100.00;100805.97;4975731;28;45473;-83
2022/02/18 01:52:34;;;;;;;;;4.25;4.00;;;;;14.01;100.00;100787.66;5031924;27;45487;-83
2022/02/18 01:55:07;;;;;;;;;7.25;5.25;;;;;14.08;100.00;100793.09;4975692;28;45470;-82
2022/02/18 01:57:32;;;;;;;;;7.25;5.25;;;;;14.00;100.00;100783.28;4974819;28;47798;-83
2022/02/18 01:59:59;;;;;;;;;9.25;5.25;;;;;13.92;100.00;100786.53;4982659;28;45536;-83
2022/02/18 02:02:24;;;;;;;;;6.25;5.00;;;;;13.96;100.00;100781.44;4992985;27;45236;-83
2022/02/18 02:04:50;;;;;;;;;5.25;4.25;;;;;14.01;100.00;100796.34;4992678;27;45600;-83
2022/02/18 02:07:17;;;;;;;;;4.00;3.50;;;;;13.87;100.00;100769.91;4982289;27;47657;-83
2022/02/18 02:09:42;;;;;;;;;5.00;3.75;;;;;13.84;100.00;100763.72;4975086;28;45589;-83
2022/02/18 02:12:09;;;;;;;;;5.25;4.50;;;;;13.93;100.00;100787.41;4974774;28;45450;-83
2022/02/18 02:14:34;;;;;;;;;3.75;3.75;;;;;13.89;100.00;100773.41;4994815;27;45465;-83
2022/02/18 02:17:00;;;;;;;;;5.25;4.00;;;;;13.81;100.00;100761.91;4992379;27;45847;-83
2022/02/18 02:19:27;;;;;;;;;6.75;5.00;;;;;13.78;100.00;100751.38;4992846;28;45498;-83
2022/02/18 02:21:55;;;;;;;;;4.75;4.75;;;;;13.72;100.00;100752.09;4994080;27;45877;-83
2022/02/18 02:24:21;;;;;;;;;5.75;5.00;;;;;13.67;100.00;100747.56;4992606;28;45323;-83
2022/02/18 02:26:47;;;;;;;;;4.00;3.25;;;;;13.63;100.00;100744.00;4974684;28;46817;-83
2022/02/18 02:29:14;;;;;;;;;3.00;3.00;;;;;13.60;100.00;100736.13;5023879;27;45431;-83
2022/02/18 02:31:40;;;;;;;;;4.00;3.25;;;;;13.57;100.00;100729.06;4995680;27;45360;-83
2022/02/18 02:34:07;;;;;;;;;2.00;2.00;;;;;13.66;100.00;100740.63;4995467;28;45485;-83
2022/02/18 02:36:33;;;;;;;;;4.75;4.00;;;;;13.61;100.00;100730.94;5046726;28;46293;-82
2022/02/18 02:38:59;;;;;;;;;5.00;5.00;;;;;13.62;100.00;100726.63;4977265;28;45431;-85
2022/02/18 02:41:25;;;;;;;;;7.00;4.25;;;;;13.64;100.00;100727.56;4980949;28;45389;-83
2022/02/18 02:43:51;;;;;;;;;2.75;2.75;;;;;13.62;100.00;100701.50;4984584;28;45637;-84
2022/02/18 02:46:18;;;;;;;;;4.00;4.00;;;;;13.60;100.00;100684.09;4993355;28;47651;-83
2022/02/18 02:48:44;;;;;;;;;3.00;2.00;;;;;13.55;100.00;100663.13;5063049;27;45841;-83
2022/02/18 02:51:10;;;;;;;;;5.25;5.25;;;;;13.64;100.00;100683.31;4995530;28;45416;-83
2022/02/18 02:53:39;;;;;;;;;5.75;4.25;;;;;13.58;100.00;100673.63;4978102;28;45572;-83
2022/02/18 02:56:05;;;;;;;;;4.50;4.50;;;;;13.61;100.00;100665.03;4976668;28;47785;-83
2022/02/18 02:58:31;;;;;;;;;4.00;3.00;;;;;13.64;100.00;100648.63;4994781;28;45330;-83
2022/02/18 03:00:57;;;;;;;;;4.00;4.00;;;;;13.60;100.00;100643.34;4977239;28;45350;-83
2022/02/18 03:03:23;;;;;;;;;4.75;4.00;;;;;13.56;100.00;100641.47;4996118;27;45436;-83
2022/02/18 03:05:49;;;;;;;;;3.00;3.00;;;;;13.52;100.00;100626.63;4976938;28;46916;-82
2022/02/18 03:08:15;;;;;;;;;2.75;2.75;;;;;13.54;100.00;100637.97;4977761;28;45384;-83
2022/02/18 03:10:41;;;;;;;;;4.00;4.00;;;;;13.54;100.00;100629.25;4995107;28;45482;-83
2022/02/18 03:13:07;;;;;;;;;4.00;4.00;;;;;13.56;100.00;100628.47;4995846;28;45313;-81
2022/02/18 03:15:33;;;;;;;;;2.00;2.00;;;;;13.59;100.00;100623.38;4977591;28;47707;-83
2022/02/18 03:17:58;;;;;;;;;2.75;2.25;;;;;13.63;100.00;100611.31;4995349;27;45328;-82
2022/02/18 03:20:29;;;;;;;;;2.25;1.00;;;;;13.67;100.00;100617.50;5079762;27;45263;-83
2022/02/18 03:22:56;;;;;;;;;2.00;2.00;;;;;13.64;100.00;100597.47;5038353;27;46029;-84
2022/02/18 03:25:22;;;;;;;;;3.75;3.75;;;;;13.78;100.00;100611.78;4976850;28;46919;-83
2022/02/18 03:27:47;;;;;;;;;2.25;2.25;;;;;13.79;100.00;100594.44;4994768;28;45296;-82
2022/02/18 03:30:15;;;;;;;;;1.00;1.00;;;;;13.84;100.00;100594.56;4994284;28;45212;-83
2022/02/18 03:32:40;;;;;;;;;1.50;1.50;;;;;13.93;100.00;100606.13;4995206;27;45499;-83
2022/02/18 03:35:06;;;;;;;;;3.75;2.50;;;;;13.89;100.00;100604.25;4977293;27;47924;-83
2022/02/18 03:37:32;;;;;;;;;1.00;1.00;;;;;13.92;100.00;100604.34;4994716;28;45201;-82
2022/02/18 03:39:58;;;;;;;;;0.25;0.25;;;;;13.92;100.00;100599.16;4994564;28;45477;-82
2022/02/18 03:42:23;;;;;;;;;0.50;0.50;;;;;13.98;100.00;100608.84;4995122;28;45450;-84
2022/02/18 03:44:49;;;;;;;;;0.00;0.00;;;;;13.92;100.00;100588.72;5010017;27;46237;-83
2022/02/18 03:47:15;;;;;;;;;0.00;0.00;;;;;13.86;100.00;100583.38;4976703;28;45520;-84
2022/02/18 03:49:40;;;;;;;;;0.00;0.00;;;;;13.91;100.00;100588.69;4994610;28;45473;-84
2022/02/18 03:52:06;;;;;;;;;1.50;0.00;;;;;13.93;100.00;100579.19;4976787;28;45347;-83
2022/02/18 03:54:32;;;;;;;;;0.00;0.00;;;;;13.90;100.00;100587.81;4994269;27;46502;-83
2022/02/18 03:56:58;;;;;;;;;0.00;0.00;;;;;13.87;100.00;100582.53;4996847;27;45630;-83
2022/02/18 03:59:24;;;;;;;;;0.00;0.00;;;;;13.85;100.00;100566.00;4994391;27;45318;-83
2022/02/18 04:01:49;;;;;;;;;0.50;0.00;;;;;13.90;100.00;100556.56;4976346;28;46653;-83
2022/02/18 04:04:16;;;;;;;;;1.00;0.00;;;;;13.87;100.00;100566.91;4993996;28;45242;-84
2022/02/18 04:06:41;;;;;;;;;0.00;0.00;;;;;13.88;100.00;100554.78;4976699;28;45877;-83
2022/02/18 04:09:07;;;;;;;;;0.00;0.00;;;;;13.89;100.00;100544.41;4997014;27;45561;-83
2022/02/18 04:11:33;;;;;;;;;0.00;0.00;;;;;13.93;100.00;100541.06;4995058;28;45527;-84
2022/02/18 04:13:59;;;;;;;;;0.00;0.00;;;;;13.97;100.00;100535.94;4993659;27;46050;-82
2022/02/18 04:16:24;;;;;;;;;0.00;0.00;;;;;13.89;100.00;100520.09;4976860;28;45334;-83
2022/02/18 04:18:56;;;;;;;;;0.00;0.00;;;;;13.95;100.00;100522.00;4976655;28;45431;-83
2022/02/18 04:21:22;;;;;;;;;0.00;0.00;;;;;13.96;100.00;100534.16;4993983;27;45331;-84
2022/02/18 04:23:48;;;;;;;;;0.00;0.00;;;;;13.93;100.00;100515.03;4978641;28;46622;-82
2022/02/18 04:26:14;;;;;;;;;2.00;0.25;;;;;14.00;100.00;100517.78;4993763;28;45411;-83
2022/02/18 04:28:40;;;;;;;;;0.50;0.00;;;;;13.98;100.00;100506.47;5008422;28;45747;-82
2022/02/18 04:31:06;;;;;;;;;0.00;0.00;;;;;14.03;100.00;100525.66;4994201;28;45538;-82
2022/02/18 04:33:32;;;;;;;;;0.00;0.00;;;;;14.00;100.00;100502.16;4976421;28;48063;-84
2022/02/18 04:35:58;;;;;;;;;1.00;0.00;;;;;14.04;100.00;100502.28;4994497;28;45654;-83
2022/02/18 04:38:23;;;;;;;;;0.00;0.00;;;;;14.00;100.00;100502.16;4997254;27;45316;-82
2022/02/18 04:40:49;;;;;;;;;0.00;0.00;;;;;14.03;100.00;100492.72;4977252;28;45620;-83
2022/02/18 04:43:15;;;;;;;;;0.00;0.00;;;;;14.06;100.00;100502.31;4978266;28;45293;-82
2022/02/18 04:45:40;;;;;;;;;0.00;0.00;;;;;14.07;100.00;100504.09;4994279;27;45351;-82
2022/02/18 04:48:06;;;;;;;;;0.75;0.00;;;;;13.99;100.00;100485.66;4976176;28;45477;-84
2022/02/18 04:50:32;;;;;;;;;0.00;0.00;;;;;13.96;100.00;100480.38;4976238;28;45480;-83
2022/02/18 04:52:58;;;;;;;;;0.00;0.00;;;;;14.04;100.00;100488.38;4994625;28;45449;-82
2022/02/18 04:55:24;;;;;;;;;0.50;0.00;;;;;13.99;100.00;100470.06;4994165;28;45880;-83
2022/02/18 04:57:52;;;;;;;;;0.00;0.00;;;;;14.03;100.00;100489.22;4996923;27;45302;-83
2022/02/18 05:00:18;;;;;;;;;0.25;0.25;;;;;14.00;100.00;100487.44;4981758;28;45995;-82
2022/02/18 05:02:45;;;;;;;;;0.00;0.00;;;;;13.97;100.00;100470.88;4993767;28;45962;-83
2022/02/18 05:05:11;;;;;;;;;0.00;0.00;;;;;13.91;100.00;100454.25;4993027;28;45331;-83
2022/02/18 05:07:37;;;;;;;;;1.00;0.00;;;;;13.99;100.00;100469.16;4993915;28;45480;-84
2022/02/18 05:10:03;;;;;;;;;0.00;0.00;;;;;14.00;100.00;100473.53;4975683;28;45279;-82
2022/02/18 05:12:29;;;;;;;;;0.00;0.00;;;;;13.89;100.00;100439.44;4997861;27;47708;-84
2022/02/18 05:14:57;;;;;;;;;0.00;0.00;;;;;13.90;100.00;100439.47;5082689;27;45366;-82
2022/02/18 05:17:23;;;;;;;;;0.00;0.00;;;;;13.97;100.00;100452.66;4978374;28;45312;-82
2022/02/18 05:19:49;;;;;;;;;0.00;0.00;;;;;13.93;100.00;100438.66;4979696;28;45362;-84
2022/02/18 05:22:14;;;;;;;;;1.00;0.00;;;;;14.00;100.00;100455.31;4992895;27;45719;-83
2022/02/18 05:24:40;;;;;;;;;0.00;0.00;;;;;13.99;100.00;100430.13;4993177;28;45370;-83
2022/02/18 05:27:06;;;;;;;;;0.00;0.00;;;;;14.01;100.00;100434.53;4993684;27;45366;-84
2022/02/18 05:29:31;;;;;;;;;1.00;0.00;;;;;13.99;100.00;100427.50;4993668;27;45370;-83
2022/02/18 05:31:59;;;;;;;;;0.00;0.00;;;;;13.98;100.00;100426.66;4992934;27;45471;-83
2022/02/18 05:34:25;;;;;;;;;0.50;0.00;;;;;13.95;100.00;100418.75;4993658;28;45521;-82
2022/02/18 05:36:50;;;;;;;;;0.00;0.00;;;;;13.97;100.00;100419.69;4992992;28;45484;-83
2022/02/18 05:39:16;;;;;;;;;0.00;0.00;;;;;13.98;100.00;100420.56;4993391;28;45438;-82
2022/02/18 05:41:42;;;;;;;;;0.00;0.00;;;;;13.96;100.00;100402.28;4992858;28;45445;-82
2022/02/18 05:44:07;;;;;;;;;0.00;0.00;;;;;14.00;100.00;100396.34;5025885;27;46008;-82
2022/02/18 05:46:33;;;;;;;;;0.00;0.00;;;;;14.02;100.00;100394.66;4993233;28;45311;-82
2022/02/18 05:48:58;;;;;;;;;0.00;0.00;;;;;14.03;100.00;100387.72;4986538;27;45216;-82
2022/02/18 05:51:24;;;;;;;;;0.00;0.00;;;;;14.04;100.00;100390.34;4992931;28;45290;-82
2022/02/18 05:53:49;;;;;;;;;0.00;0.00;;;;;14.03;100.00;100375.59;4977024;27;45519;-82
2022/02/18 05:56:15;;;;;;;;;0.00;0.00;;;;;14.03;100.00;100391.22;4992481;27;45219;-83
2022/02/18 05:58:43;;;;;;;;;0.00;0.00;;;;;14.03;100.00;100374.69;4992578;28;45549;-82
2022/02/18 06:01:09;;;;;;;;;0.00;0.00;;;;;14.03;100.00;100362.59;4991856;28;45421;-82
2022/02/18 06:03:34;;;;;;;;;0.00;0.00;;;;;14.03;100.00;100351.28;4977231;28;45484;-82
2022/02/18 06:06:00;;;;;;;;;0.00;0.00;;;;;14.05;100.00;100349.59;4978157;28;45309;-82
2022/02/18 06:08:25;;;;;;;;;1.50;0.00;;;;;14.07;100.00;100345.31;4978544;28;45316;-83
2022/02/18 06:10:51;;;;;;;;;0.00;0.00;;;;;14.11;100.00;100328.03;4995814;28;45898;-82
2022/02/18 06:13:18;;;;;;;;;1.00;0.00;;;;;14.13;100.00;100336.75;4994964;27;45301;-82
2022/02/18 06:15:44;;;;;;;;;0.00;0.00;;;;;14.07;100.00;100317.53;4978176;28;45547;-83
2022/02/18 06:18:10;;;;;;;;;1.00;0.00;;;;;14.03;100.00;100307.03;4995130;27;45259;-82
2022/02/18 06:20:36;;;;;;;;;0.25;0.25;;;;;14.04;100.00;100327.88;5001702;27;46335;-82
2022/02/18 06:23:01;;;;;;;;;0.00;0.00;;;;;14.05;100.00;100334.84;4994893;28;45236;-82
2022/02/18 06:25:27;;;;;;;;;0.00;0.00;;;;;14.04;100.00;100311.38;4996225;27;45255;-83
2022/02/18 06:28:07;;;;;;;;;0.00;0.00;;;;;14.02;100.00;100328.69;4995798;28;45595;-82
2022/02/18 06:30:34;;;;;;;;;0.00;0.00;;;;;14.03;100.00;100318.34;4995108;28;45432;-83
2022/02/18 06:33:00;;;;;;;;;0.00;0.00;;;;;14.02;100.00;100316.56;4994847;28;45652;-82
2022/02/18 06:35:26;;;;;;;;;0.25;0.00;;;;;14.02;100.00;100306.16;4996590;27;45353;-82
2022/02/18 06:37:53;;;;;;;;;0.00;0.00;;;;;13.99;100.00;100298.28;4999041;27;45550;-82
2022/02/18 06:40:18;;;;;;;;;1.00;1.00;;;;;14.00;100.00;100309.53;5044968;27;46525;-82
2022/02/18 06:42:44;;;;;;;;;1.00;1.00;;;;;13.97;100.00;100296.50;4994969;28;45514;-83
2022/02/18 06:45:09;;;;;;;;;0.75;0.00;;;;;13.93;100.00;100299.00;4994899;28;45355;-82
2022/02/18 06:47:35;;;;;;;;;1.00;0.00;;;;;13.92;100.00;100292.03;4980011;28;45388;-82
2022/02/18 06:50:01;;;;;;;;;0.00;0.00;;;;;13.91;100.00;100273.81;5006497;27;45995;-80
2022/02/18 06:52:26;;;;;;;;;0.00;0.00;;;;;13.89;100.00;100281.56;5038982;27;45327;-82
2022/02/18 06:54:52;;;;;;;;;0.00;0.00;;;;;13.86;100.00;100273.69;4995202;28;45406;-82
2022/02/18 06:57:17;;;;;;;;;0.00;0.00;;;;;13.84;100.00;100261.47;4977348;28;45777;-83
2022/02/18 06:59:43;;;;;;;;;1.00;0.00;;;;;13.85;100.00;100268.44;4996132;27;46298;-81
2022/02/18 07:02:09;;;;;;;;;1.00;0.00;;;;;13.84;100.00;100257.16;4979555;28;45508;-92
2022/02/18 07:04:34;;;;;;;;;0.00;0.00;;;;;13.83;100.00;100252.81;5014393;28;45403;-93
2022/02/18 07:07:00;;;;;;;;;0.00;0.00;;;;;13.86;100.00;100276.31;4997649;28;45474;-90
2022/02/18 07:09:26;;;;;;;;;0.00;0.00;;;;;13.80;100.00;100276.16;5003373;27;46529;-84
2022/02/18 07:11:51;;;;;;;;;0.00;0.00;;;;;13.83;100.00;100273.63;5000199;28;45409;-90
2022/02/18 07:14:17;;;;;;;;;0.00;0.00;;;;;13.83;100.00;100254.50;4984989;27;45607;-86
2022/02/18 07:16:44;;;;;;;;;0.00;0.00;;;;;13.83;100.00;100263.22;4988080;28;45603;-86
2022/02/18 07:19:14;;;;;;;;;0.75;0.75;;;;;13.84;100.00;100256.28;5011666;27;46048;-84
2022/02/18 07:21:40;;;;;;;;;0.00;0.00;;;;;13.83;100.00;100234.59;4987173;28;45779;-81
2022/02/18 07:24:10;;;;;;;;;1.00;1.00;;;;;13.81;100.00;100225.00;5012119;27;45449;-84
2022/02/18 07:26:37;;;;;;;;;0.00;0.00;;;;;13.84;100.00;100235.47;5017439;27;45327;-85
2022/02/18 07:29:03;;;;;;;;;0.50;0.00;;;;;13.82;100.00;100242.38;5022681;27;47030;-89
2022/02/18 07:31:28;;;;;;;;;1.00;1.00;;;;;13.76;100.00;100227.50;5040156;28;45390;-84
2022/02/18 07:33:54;;;;;;;;;0.25;0.25;;;;;13.78;100.00;100225.78;4995364;27;45383;-85
2022/02/18 07:36:20;;;;;;;;;0.00;0.00;;;;;13.80;100.00;100236.25;5051886;27;45611;-79
2022/02/18 07:38:45;;;;;;;;;1.00;0.00;;;;;13.81;100.00;100232.81;5041050;27;46139;-79
2022/02/18 07:41:11;;;;;;;;;0.25;0.25;;;;;13.81;100.00;100254.50;5081075;27;46734;-81
2022/02/18 07:43:36;;;;;;;;;0.00;0.00;;;;;13.83;100.00;100234.59;5043655;27;45469;-79
2022/02/18 07:46:03;;;;;;;;;0.00;0.00;;;;;13.87;100.00;100245.94;4995527;28;45609;-79
2022/02/18 07:48:29;;;;;;;;;0.00;0.00;;;;;13.86;100.00;100229.47;4993472;27;45512;-77
2022/02/18 07:50:54;;;;;;;;;0.00;0.00;;;;;13.89;100.00;100252.06;5022810;27;45331;-82
2022/02/18 07:53:20;;;;;;;;;0.00;0.00;;;;;13.90;100.00;100213.06;5002467;27;45370;-80
2022/02/18 07:55:46;;;;;;;;;1.00;0.50;;;;;13.92;100.00;100207.91;4994538;28;45445;-79
2022/02/18 07:58:11;;;;;;;;;1.00;0.00;;;;;13.90;100.00;100200.03;4994072;28;46175;-77
2022/02/18 08:00:38;;;;;;;;;1.00;1.00;;;;;13.90;100.00;100196.56;4994846;28;45447;-79
2022/02/18 08:03:04;;;;;;;;;0.00;0.00;;;;;13.89;100.00;100213.91;4977487;28;45251;-79
2022/02/18 08:05:30;;;;;;;;;0.75;0.00;;;;;13.90;100.00;100176.63;4994991;27;45272;-79
2022/02/18 08:07:57;;;;;;;;;0.25;0.00;;;;;13.91;100.00;100160.16;4993073;28;46226;-78
2022/02/18 08:10:23;;;;;;;;;0.00;0.00;;;;;13.94;100.00;100154.13;4993872;28;45826;-78
2022/02/18 08:12:49;;;;;;;;;0.00;0.00;;;;;13.95;100.00;100155.03;4994335;28;45419;-79
2022/02/18 08:15:15;;;;;;;;;0.00;0.00;;;;;13.93;100.00;100179.28;4976265;28;45282;-78
2022/02/18 08:17:41;;;;;;;;;0.25;0.00;;;;;13.91;100.00;100162.78;4993569;28;46198;-77
2022/02/18 08:20:08;;;;;;;;;0.00;0.00;;;;;13.88;100.00;100152.28;4993897;27;45394;-77
2022/02/18 08:22:35;;;;;;;;;0.00;0.00;;;;;13.89;100.00;100224.31;4993934;27;45305;-78
2022/02/18 08:25:01;;;;;;;;;0.00;0.00;;;;;13.90;100.00;100170.56;4992877;28;45230;-78
2022/02/18 08:27:27;;;;;;;;;0.00;0.00;;;;;13.90;100.00;100194.84;4993996;28;45278;-80
2022/02/18 08:29:54;;;;;;;;;2.00;0.00;;;;;13.90;100.00;100205.25;4994018;28;45476;-77
2022/02/18 08:32:20;;;;;;;;;0.00;0.00;;;;;13.89;100.00;100179.19;4992718;28;45531;-77
2022/02/18 08:34:45;;;;;;;;;0.00;0.00;;;;;13.86;100.00;100197.34;4993892;27;45569;-79
2022/02/18 08:37:11;;;;;;;;;0.00;0.00;;;;;13.85;100.00;100198.19;4994044;27;46072;-82
2022/02/18 08:39:37;;;;;;;;;0.00;0.00;;;;;13.84;100.00;100180.81;4990231;28;45487;-82
2022/02/18 08:42:03;;;;;;;;;0.75;0.00;;;;;13.86;100.00;100176.53;4994689;28;45300;-81
2022/02/18 08:44:29;;;;;;;;;0.00;0.00;;;;;13.86;100.00;100200.84;4994876;28;45279;-82
2022/02/18 08:46:55;;;;;;;;;0.00;0.00;;;;;13.89;100.00;100177.47;5024090;27;46201;-86
2022/02/18 08:49:21;;;;;;;;;0.00;0.00;;;;;13.92;100.00;100210.50;5008798;28;45329;-82
2022/02/18 08:51:46;;;;;;;;;0.25;0.00;;;;;13.91;100.00;100207.00;5058676;27;45455;-85
2022/02/18 08:54:12;;;;;;;;;0.00;0.00;;;;;13.88;100.00;100173.09;5033992;27;45443;-94
2022/02/18 08:56:38;;;;;;;;;0.00;0.00;;;;;13.90;100.00;100168.81;4986391;28;47016;-84
2022/02/18 08:59:05;;;;;;;;;0.50;0.00;;;;;13.90;100.00;100192.22;4995943;27;45347;-88
2022/02/18 09:01:31;;;;;;;;;0.00;0.00;;;;;13.90;100.00;100158.41;4999795;27;45574;-83
2022/02/18 09:03:57;;;;;;;;;0.00;0.00;;;;;13.93;100.00;100179.28;4974945;28;45818;-85
2022/02/18 09:06:23;;;;;;;;;0.00;0.00;;;;;13.97;100.00;100176.75;4992578;27;46302;-84
2022/02/18 09:08:49;;;;;;;;;0.75;0.00;;;;;13.98;100.00;100161.16;4996324;28;45342;-83
2022/02/18 09:11:17;;;;;;;;;0.25;0.25;;;;;13.99;100.00;100157.72;4995272;28;45189;-82
2022/02/18 09:13:42;;;;;;;;;0.00;0.00;;;;;13.98;100.00;100155.97;4993626;28;45607;-82
2022/02/18 09:16:08;;;;;;;;;2.00;0.00;;;;;13.98;100.00;100147.28;4992369;28;45773;-81
2022/02/18 09:18:34;;;;;;;;;0.00;0.00;;;;;13.99;100.00;100160.34;4992969;28;45350;-82
2022/02/18 09:20:59;;;;;;;;;0.25;0.25;;;;;13.98;100.00;100153.38;4992009;28;45421;-81
2022/02/18 09:23:25;;;;;;;;;1.00;0.00;;;;;13.97;100.00;100150.75;4992856;28;45554;-81
2022/02/18 09:25:51;;;;;;;;;0.00;0.00;;;;;13.97;100.00;100127.31;4992348;28;45420;-80
2022/02/18 09:28:16;;;;;;;;;0.00;0.00;;;;;14.01;100.00;100139.53;4992659;28;45315;-81
2022/02/18 09:30:44;;;;;;;;;0.25;0.00;;;;;13.99;100.00;100141.22;4993200;28;45356;-82
2022/02/18 09:33:14;;;;;;;;;1.75;0.00;;;;;14.01;100.00;100142.13;4993104;27;45482;-81
2022/02/18 09:35:44;;;;;;;;;0.00;0.00;;;;;14.01;100.00;100131.72;4993763;27;45481;-81
2022/02/18 09:38:11;;;;;;;;;0.75;0.75;;;;;14.00;100.00;100125.66;4977862;28;45436;-82
2022/02/18 09:40:37;;;;;;;;;0.75;0.75;;;;;14.01;100.00;100114.41;4978213;28;45271;-81
2022/02/18 09:43:04;;;;;;;;;0.00;0.00;;;;;14.02;100.00;100131.78;4977747;28;45426;-82
2022/02/18 09:45:31;;;;;;;;;0.00;0.00;;;;;14.04;100.00;100114.44;4981208;28;45666;-92
2022/02/18 09:47:57;;;;;;;;;0.00;0.00;;;;;14.03;100.00;100117.00;4999136;28;45661;-91
2022/02/18 09:50:24;;;;;;;;;0.00;0.00;;;;;14.00;100.00;100110.03;4999144;28;45376;-91
2022/02/18 09:52:50;;;;;;;;;0.00;0.00;;;;;14.01;100.00;100083.16;4997723;27;45395;-90
2022/02/18 09:55:15;;;;;;;;;0.00;0.00;;;;;14.04;100.00;100111.81;4997164;28;46519;-84
2022/02/18 09:57:45;;;;;;;;;1.00;0.00;;;;;14.06;100.00;100104.94;4992902;28;45304;-85
2022/02/18 10:00:12;;;;;;;;;0.25;0.00;;;;;14.11;100.00;100098.94;4978555;28;45465;-87
2022/02/18 10:02:38;;;;;;;;;1.00;1.00;;;;;14.09;100.00;100083.31;4996947;28;45430;-81
2022/02/18 10:05:05;;;;;;;;;0.00;0.00;;;;;14.03;100.00;100073.66;4975413;28;46590;-79
2022/02/18 10:07:31;;;;;;;;;0.25;0.25;;;;;14.07;100.00;100072.00;4995027;28;45633;-79
2022/02/18 10:09:58;;;;;;;;;0.00;0.00;;;;;14.07;100.00;100057.22;4977490;28;45389;-82
2022/02/18 10:12:35;;;;;;;;;0.00;0.00;;;;;14.06;100.00;100062.44;4977955;28;45737;-79
2022/02/18 10:15:09;;;;;;;;;0.00;0.00;;;;;14.05;100.00;100051.13;4977573;28;46982;-79
2022/02/18 10:17:42;;;;;;;;;0.00;0.00;;;;;14.02;100.00;100058.00;4995708;28;45379;-80
2022/02/18 10:20:22;;;;;;;;;0.50;0.00;;;;;14.04;100.00;100057.16;4995105;27;45511;-80
2022/02/18 10:23:01;;;;;;;;;0.00;0.00;;;;;14.05;100.00;100045.91;4995926;28;45373;-79
2022/02/18 10:25:33;;;;;;;;;0.25;0.00;;;;;14.09;100.00;100065.97;4986816;27;46908;-80
2022/02/18 10:27:59;;;;;;;;;0.00;0.00;;;;;14.09;100.00;100052.94;4994429;28;45355;-80
2022/02/18 10:30:26;;;;;;;;;0.00;0.00;;;;;14.08;100.00;100052.94;5013677;27;45197;-80
2022/02/18 10:32:56;;;;;;;;;0.00;0.00;;;;;14.06;100.00;100054.63;5001920;27;46026;-80
2022/02/18 10:35:33;;;;;;;;;0.00;0.00;;;;;14.05;100.00;100052.84;5003361;28;45340;-81
2022/02/18 10:38:00;;;;;;;;;0.00;0.00;;;;;14.05;100.00;100055.47;4994484;28;45834;-81
2022/02/18 10:40:27;;;;;;;;;0.00;0.00;;;;;14.02;100.00;100068.41;4994234;28;45505;-80
2022/02/18 10:42:54;;;;;;;;;0.25;0.25;;;;;13.99;100.00;100052.72;5005706;27;45265;-86
2022/02/18 10:45:23;;;;;;;;;0.00;0.00;;;;;14.00;100.00;100055.38;5000525;27;46378;-81
2022/02/18 10:47:51;;;;;;;;;0.00;0.00;;;;;14.01;100.00;100064.03;4999206;28;45356;-83
2022/02/18 10:50:22;;;;;;;;;0.00;0.00;;;;;13.98;100.00;100028.44;4992752;28;45372;-81
2022/02/18 10:53:14;;;;;;;;;0.00;0.00;;;;;14.04;100.00;100045.91;4976267;28;45511;-81
2022/02/18 10:55:57;;;;;;;;;0.50;0.50;;;;;13.93;100.00;100017.94;4994211;28;46082;-81
2022/02/18 10:58:30;;;;;;;;;0.75;0.75;;;;;14.05;100.00;100029.44;4975324;28;45284;-81
2022/02/18 11:01:13;;;;;;;;;0.25;0.25;;;;;14.03;100.00;100031.13;4991345;28;45311;-80
2022/02/18 11:03:47;;;;;;;;;0.00;0.00;;;;;14.06;100.00;100044.22;4995284;28;45327;-80
2022/02/18 11:06:24;;;;;;;;;0.00;0.00;;;;;14.11;100.00;100029.53;4976582;28;47749;-79
2022/02/18 11:08:51;;;;;;;;;1.00;1.00;;;;;14.11;100.00;100018.25;4994365;28;45595;-81
2022/02/18 11:11:18;;;;;;;;;0.00;0.00;;;;;14.15;100.00;100030.44;4995008;28;45357;-84
2022/02/18 11:13:44;;;;;;;;;1.25;0.00;;;;;14.13;100.00;100066.03;4977182;28;45407;-81